Strona główna
METAR-TAF:

METAR-TAF

Lotnisko :

Roi Et, Tajlandia

Szerokość geograficzna: 16-07-00N, Długość geograficzna: 103-46-26E, wysokość: 138 m

Aktualna obserwacja pogody

Raport powstał 53 minut temu, godzina 00:00 UTC
Wiatr 4 kt od południe
Temperatura 25°C
Wilgotność 74%
Ciśnienie 1011 hPa
Widzialność: 6000 m
Mało chmury na wysokości 3000 ft

METAR: VTUV 230000Z 18004KT 6000 FEW030 25/20 Q1011 NOSIG

czas: 07:53 (00:53 UTC)

Prognoza

Raport powstał 1 godzina i 53 minut temu, godzina 23:00 UTC
Prognoza ważna od 23 godzina 00 UTC do 23 godzina 24 UTC
Wiatr 5 kt od południowo-południowy zachód
Widzialność: 5000 m
zamglenie
Stopniowe zmiany
od 23 godzina 02 UTC do 23 godzina 04 UTC
Widzialność: 7000 m
Rozproszone chmury na wysokości 3000 ft
Stopniowe zmiany
od 23 godzina 11 UTC do 23 godzina 13 UTC
Widzialność: 6000 m
Mało chmury na wysokości 3000 ft

TAF: VTUV 222300Z 2300/2324 20005KT 5000 BR NSC BECMG 2302/2304 7000 NSW SCT030 BECMG 2311/2313 6000 FEW030

Obserwacja i prognoza pogody dla ponad 4000 lotnisk (raport METAR i TAF).

Dostępne stacje oznaczono żółtymi i czerwonymi punktami na mapie.

Najedź kursorem aby zobaczyć nazwę stacji.

Kliknij aby zobaczyć obserwacje i prognozy pogody.

Aby zmienić mapę: kliknij na zielony przycisk z czarnym krzyżykiem, aby powiększyć; na zielony przycisk z myślnikiem, aby pomniejszyć; na zielone strzałki, aby przejść do map sąsiednich.


METAR-TAF: